createdAt,value
2018-05-18T00:01:48.577Z,1.12
2018-05-18T00:04:21.759Z,1.10
2018-05-18T00:06:54.622Z,1.20
2018-05-18T00:09:27.425Z,1.00
2018-05-18T00:11:59.633Z,1.30
2018-05-18T00:14:32.601Z,1.20
2018-05-18T00:17:05.107Z,1.30
2018-05-18T00:19:38.860Z,1.20
2018-05-18T00:22:11.576Z,1.10
2018-05-18T00:24:45.242Z,1.17
2018-05-18T00:27:18.571Z,1.20
2018-05-18T00:29:51.612Z,1.10
2018-05-18T00:32:24.569Z,1.00
2018-05-18T00:34:57.573Z,1.00
2018-05-18T00:37:30.764Z,1.20
2018-05-18T00:40:04.547Z,0.95
2018-05-18T00:42:37.578Z,1.10
2018-05-18T00:45:10.790Z,0.80
2018-05-18T00:47:43.606Z,0.98
2018-05-18T00:50:16.591Z,0.90
2018-05-18T00:52:50.984Z,1.33
2018-05-18T00:55:33.876Z,1.30
2018-05-18T00:58:07.840Z,1.15
2018-05-18T01:03:13.360Z,1.00
2018-05-18T01:05:46.398Z,1.10
2018-05-18T01:08:19.829Z,0.90
2018-05-18T01:10:52.950Z,1.15
2018-05-18T01:13:26.448Z,0.80
2018-05-18T01:15:59.140Z,0.90
2018-05-18T01:18:32.147Z,0.90
2018-05-18T01:21:05.126Z,0.85
2018-05-18T01:23:38.129Z,1.00
2018-05-18T01:26:11.592Z,1.00
2018-05-18T01:28:44.551Z,0.75
2018-05-18T01:31:19.297Z,0.90
2018-05-18T01:33:52.268Z,0.83
2018-05-18T01:36:25.660Z,0.90
2018-05-18T01:38:58.854Z,1.00
2018-05-18T01:41:32.662Z,1.00
2018-05-18T01:44:05.734Z,0.83
2018-05-18T01:46:39.602Z,0.90
2018-05-18T01:49:12.253Z,1.03
2018-05-18T01:51:45.403Z,1.03
2018-05-18T01:54:18.260Z,0.87
2018-05-18T01:56:51.711Z,1.00
2018-05-18T01:59:25.138Z,1.00
2018-05-18T02:01:58.815Z,1.20
2018-05-18T02:04:33.519Z,1.10
2018-05-18T02:07:06.877Z,0.90
2018-05-18T02:09:40.035Z,0.70
2018-05-18T02:12:13.569Z,1.00
2018-05-18T02:14:47.059Z,0.70
2018-05-18T02:17:19.677Z,1.10
2018-05-18T02:19:52.547Z,0.90
2018-05-18T02:23:09.822Z,0.93
2018-05-18T02:25:42.812Z,0.90
2018-05-18T02:28:16.301Z,0.80
2018-05-18T02:30:49.286Z,0.90
2018-05-18T02:33:22.233Z,0.80
2018-05-18T02:35:55.241Z,0.87
2018-05-18T02:38:28.819Z,0.90
2018-05-18T02:41:01.995Z,1.00
2018-05-18T02:43:35.156Z,1.10
2018-05-18T02:46:08.998Z,0.80
2018-05-18T02:48:41.645Z,0.90
2018-05-18T02:51:14.715Z,0.90
2018-05-18T02:53:48.874Z,0.70
2018-05-18T02:56:21.594Z,0.70
2018-05-18T02:58:54.094Z,0.90
2018-05-18T03:01:27.124Z,0.93
2018-05-18T03:04:00.323Z,0.70
2018-05-18T03:06:33.447Z,0.80
2018-05-18T03:09:06.151Z,0.90
2018-05-18T03:11:39.295Z,0.80
2018-05-18T03:14:12.146Z,0.60
2018-05-18T03:16:45.447Z,0.90
2018-05-18T03:19:18.631Z,0.80
2018-05-18T03:21:51.844Z,0.90
2018-05-18T03:24:25.037Z,0.70
2018-05-18T03:26:57.638Z,0.70
2018-05-18T03:29:30.625Z,0.80
2018-05-18T03:32:03.552Z,0.97
2018-05-18T03:34:36.629Z,0.75
2018-05-18T03:37:09.441Z,0.90
2018-05-18T03:39:42.762Z,0.80
2018-05-18T03:42:16.777Z,0.80
2018-05-18T03:44:49.712Z,0.80
2018-05-18T03:47:22.883Z,0.73
2018-05-18T03:49:56.440Z,0.73
2018-05-18T03:52:29.461Z,0.80
2018-05-18T03:55:02.172Z,0.80
2018-05-18T03:57:34.746Z,1.00
2018-05-18T04:00:07.664Z,3.37
2018-05-18T04:02:51.767Z,0.80
2018-05-18T04:05:35.164Z,1.00
2018-05-18T04:08:19.004Z,0.70
2018-05-18T04:13:24.347Z,0.80
2018-05-18T04:18:02.276Z,0.90
2018-05-18T04:20:35.882Z,0.90
2018-05-18T04:23:09.635Z,0.80
2018-05-18T04:25:42.855Z,0.90
2018-05-18T04:28:15.495Z,0.70
2018-05-18T04:30:47.633Z,0.70
2018-05-18T04:33:20.176Z,0.80
2018-05-18T04:35:53.530Z,0.90
2018-05-18T04:38:26.396Z,0.80
2018-05-18T04:40:59.134Z,0.70
2018-05-18T04:43:31.968Z,0.70
2018-05-18T04:50:30.648Z,0.80
2018-05-18T04:53:03.973Z,0.73
2018-05-18T04:55:37.811Z,0.60
2018-05-18T04:58:10.207Z,0.93
2018-05-18T05:00:43.743Z,0.90
2018-05-18T05:03:16.893Z,0.70
2018-05-18T05:05:49.680Z,0.70
2018-05-18T05:08:23.210Z,0.80
2018-05-18T05:10:55.902Z,0.80
2018-05-18T05:13:29.921Z,0.60
2018-05-18T05:16:02.808Z,0.67
2018-05-18T05:18:36.034Z,0.80
2018-05-18T05:21:09.901Z,0.70
2018-05-18T05:23:43.254Z,0.70
2018-05-18T05:26:16.194Z,0.90
2018-05-18T05:28:49.958Z,0.60
2018-05-18T05:32:14.793Z,0.90
2018-05-18T05:34:47.886Z,0.80
2018-05-18T05:37:20.583Z,0.80
2018-05-18T05:39:53.800Z,0.70
2018-05-18T05:42:27.867Z,0.65
2018-05-18T05:45:00.863Z,0.60
2018-05-18T05:47:34.871Z,0.80
2018-05-18T05:50:08.204Z,0.73
2018-05-18T05:52:41.686Z,0.70
2018-05-18T05:55:15.082Z,0.80
2018-05-18T05:57:48.691Z,0.80
2018-05-18T06:00:21.994Z,0.67
2018-05-18T06:02:55.934Z,0.80
2018-05-18T06:05:28.536Z,0.70
2018-05-18T06:08:02.053Z,0.80
2018-05-18T06:10:35.202Z,0.70
2018-05-18T06:13:08.837Z,0.80
2018-05-18T06:15:41.680Z,0.73
2018-05-18T06:18:14.597Z,0.90
2018-05-18T06:20:47.819Z,0.90
2018-05-18T06:23:21.496Z,0.75
2018-05-18T06:25:54.808Z,0.97
2018-05-18T06:28:28.006Z,1.00
2018-05-18T06:31:01.164Z,0.90
2018-05-18T06:33:34.226Z,1.00
2018-05-18T06:36:07.366Z,0.90
2018-05-18T06:38:40.823Z,0.95
2018-05-18T06:41:14.080Z,0.70
2018-05-18T06:43:47.133Z,0.90
2018-05-18T06:46:51.749Z,0.65
2018-05-18T06:49:24.883Z,0.90
2018-05-18T06:51:58.318Z,0.93
2018-05-18T06:54:31.737Z,1.10
2018-05-18T06:57:04.692Z,1.10
2018-05-18T06:59:37.705Z,1.05
2018-05-18T07:02:10.213Z,1.00
2018-05-18T07:04:43.703Z,1.00
2018-05-18T07:07:16.492Z,1.00
2018-05-18T07:09:49.210Z,1.00
2018-05-18T07:12:22.958Z,1.10
2018-05-18T07:16:32.301Z,0.80
2018-05-18T07:19:06.230Z,0.80
2018-05-18T07:21:40.743Z,0.90
2018-05-18T07:24:16.369Z,0.80
2018-05-18T07:26:49.988Z,1.10
2018-05-18T07:29:23.894Z,0.80
2018-05-18T07:31:56.910Z,1.10
2018-05-18T07:34:29.722Z,1.00
2018-05-18T07:37:03.094Z,0.90
2018-05-18T07:39:36.079Z,0.77
2018-05-18T07:42:09.514Z,0.90
2018-05-18T07:44:42.046Z,0.93
2018-05-18T07:47:14.858Z,0.90
2018-05-18T07:49:48.412Z,0.75
2018-05-18T07:52:21.473Z,1.00
2018-05-18T07:54:54.622Z,0.80
2018-05-18T07:57:27.887Z,1.00
2018-05-18T08:00:00.362Z,1.00
2018-05-18T08:02:33.591Z,0.90
2018-05-18T08:05:06.374Z,1.10
2018-05-18T08:07:39.558Z,0.90
2018-05-18T08:10:13.637Z,0.80
2018-05-18T08:12:47.047Z,0.80
2018-05-18T08:15:19.392Z,0.90
2018-05-18T08:17:52.387Z,0.80
2018-05-18T08:20:25.730Z,0.93
2018-05-18T08:22:58.878Z,0.90
2018-05-18T08:25:31.410Z,0.90
2018-05-18T08:28:04.179Z,0.90
2018-05-18T08:30:47.512Z,0.80
2018-05-18T08:33:20.912Z,0.80
2018-05-18T08:35:53.685Z,0.80
2018-05-18T08:38:27.198Z,0.80
2018-05-18T08:41:00.366Z,0.90
2018-05-18T08:43:33.511Z,0.70
2018-05-18T08:46:07.074Z,0.80
2018-05-18T08:48:40.371Z,0.90
2018-05-18T08:51:13.413Z,1.00
2018-05-18T08:53:47.378Z,0.80
2018-05-18T08:56:20.297Z,0.88
2018-05-18T08:58:53.652Z,0.70
2018-05-18T09:01:26.784Z,0.90
2018-05-18T09:04:00.582Z,0.87
2018-05-18T09:06:33.449Z,0.90
2018-05-18T09:09:06.338Z,0.70
2018-05-18T09:11:39.211Z,0.90
2018-05-18T09:14:12.602Z,0.80
2018-05-18T09:16:45.537Z,0.60
2018-05-18T09:19:18.513Z,1.00
2018-05-18T09:21:51.308Z,0.60
2018-05-18T09:24:23.725Z,0.77
2018-05-18T09:26:57.744Z,0.90
2018-05-18T09:29:31.763Z,0.80
2018-05-18T09:32:04.753Z,0.70
2018-05-18T09:34:36.904Z,0.90
2018-05-18T09:37:09.691Z,0.70
2018-05-18T09:39:43.586Z,0.93
2018-05-18T09:42:16.491Z,0.90
2018-05-18T09:44:49.667Z,0.80
2018-05-18T09:47:23.530Z,0.90
2018-05-18T09:49:56.315Z,0.90
2018-05-18T09:52:29.491Z,0.90
2018-05-18T09:55:02.777Z,0.90
2018-05-18T09:57:36.664Z,0.80
2018-05-18T10:00:09.446Z,0.77
2018-05-18T10:02:42.473Z,0.90
2018-05-18T10:05:15.640Z,0.80
2018-05-18T10:07:48.620Z,0.93
2018-05-18T10:10:21.441Z,0.90
2018-05-18T10:12:54.588Z,0.80
2018-05-18T10:15:28.047Z,0.93
2018-05-18T10:18:01.792Z,0.80
2018-05-18T10:20:35.054Z,1.00
2018-05-18T10:23:44.006Z,0.70
2018-05-18T10:26:17.050Z,1.00
2018-05-18T10:28:50.815Z,0.80
2018-05-18T10:31:23.939Z,0.73
2018-05-18T10:33:57.447Z,0.90
2018-05-18T10:37:01.079Z,0.90
2018-05-18T10:39:34.630Z,0.80
2018-05-18T10:42:07.100Z,0.90
2018-05-18T10:44:40.401Z,0.73
2018-05-18T10:47:13.414Z,0.70
2018-05-18T10:49:46.086Z,0.70
2018-05-18T10:52:19.639Z,0.77
2018-05-18T10:54:53.638Z,0.85
2018-05-18T10:57:26.332Z,0.88
2018-05-18T10:59:59.078Z,0.80
2018-05-18T11:02:32.825Z,0.90
2018-05-18T11:05:05.613Z,1.00
2018-05-18T11:07:39.249Z,0.70
2018-05-18T11:10:12.889Z,0.90
2018-05-18T11:12:45.422Z,0.80
2018-05-18T11:15:18.344Z,0.90
2018-05-18T11:17:51.570Z,0.80
2018-05-18T11:20:25.643Z,0.70
2018-05-18T11:22:58.922Z,0.90
2018-05-18T11:25:31.591Z,0.80
2018-05-18T11:28:04.730Z,0.90
2018-05-18T11:30:37.134Z,0.70
2018-05-18T11:33:10.114Z,0.90
2018-05-18T11:35:43.575Z,0.70
2018-05-18T11:38:17.549Z,1.00
2018-05-18T11:40:50.714Z,0.90
2018-05-18T11:43:24.662Z,0.90
2018-05-18T11:45:58.710Z,0.95
2018-05-18T11:48:31.157Z,0.83
2018-05-18T11:51:04.452Z,0.80
2018-05-18T11:53:37.718Z,0.70
2018-05-18T11:56:11.699Z,0.90
2018-05-18T11:58:44.738Z,0.73
2018-05-18T12:01:17.971Z,0.80
2018-05-18T12:03:51.422Z,0.90
2018-05-18T12:06:25.586Z,0.93
2018-05-18T12:08:58.724Z,0.80
2018-05-18T12:11:32.353Z,1.00
2018-05-18T12:14:05.609Z,0.90
2018-05-18T12:16:39.267Z,0.90
2018-05-18T12:19:12.514Z,1.00
2018-05-18T12:21:45.249Z,0.80
2018-05-18T12:24:18.634Z,0.70
2018-05-18T12:26:51.432Z,0.85
2018-05-18T12:29:24.670Z,0.80
2018-05-18T12:31:57.359Z,1.20
2018-05-18T12:34:29.761Z,0.87
2018-05-18T12:37:03.455Z,0.73
2018-05-18T12:39:37.763Z,0.80
2018-05-18T12:42:10.283Z,1.00
2018-05-18T12:44:43.842Z,1.00
2018-05-18T12:47:17.637Z,0.80
2018-05-18T12:49:50.807Z,0.90
2018-05-18T12:53:46.576Z,0.90
2018-05-18T12:56:19.188Z,0.90
2018-05-18T12:58:52.584Z,0.80
2018-05-18T13:01:25.166Z,0.90
2018-05-18T13:03:58.442Z,0.90
2018-05-18T13:06:31.735Z,0.90
2018-05-18T13:09:04.443Z,0.90
2018-05-18T13:11:37.476Z,0.70
2018-05-18T13:14:11.371Z,0.70
2018-05-18T13:16:44.639Z,0.75
2018-05-18T13:19:17.654Z,0.70
2018-05-18T13:21:51.601Z,0.80
2018-05-18T13:24:24.448Z,0.75
2018-05-18T13:26:57.642Z,0.73
2018-05-18T13:29:30.834Z,0.80
2018-05-18T13:32:04.615Z,0.90
2018-05-18T13:34:38.039Z,0.80
2018-05-18T13:37:11.387Z,0.77
2018-05-18T13:39:44.836Z,0.70
2018-05-18T13:42:18.784Z,0.90
2018-05-18T13:44:52.745Z,1.02
2018-05-18T13:47:26.630Z,1.10
2018-05-18T13:49:59.457Z,0.80
2018-05-18T13:52:32.015Z,0.70
2018-05-18T13:55:04.999Z,0.70
2018-05-18T13:57:37.800Z,0.90
2018-05-18T14:00:10.590Z,1.00
2018-05-18T14:02:43.496Z,0.80
2018-05-18T14:05:16.766Z,0.80
2018-05-18T14:07:49.552Z,0.80
2018-05-18T14:10:22.734Z,0.80
2018-05-18T14:12:55.763Z,0.70
2018-05-18T14:15:28.710Z,0.80
2018-05-18T14:18:02.128Z,0.80
2018-05-18T14:20:35.708Z,0.70
2018-05-18T14:25:40.486Z,0.65
2018-05-18T14:28:13.820Z,0.80
2018-05-18T14:30:47.492Z,0.70
2018-05-18T14:33:20.610Z,0.80
2018-05-18T14:35:53.481Z,0.80
2018-05-18T14:38:26.621Z,0.90
2018-05-18T14:40:59.811Z,0.80
2018-05-18T14:43:33.303Z,0.90
2018-05-18T14:46:05.787Z,0.90
2018-05-18T14:51:10.495Z,0.73
2018-05-18T14:53:43.708Z,0.70
2018-05-18T14:56:16.477Z,0.82
2018-05-18T14:58:49.116Z,0.80
2018-05-18T15:01:22.615Z,0.87
2018-05-18T15:03:56.913Z,0.80
2018-05-18T15:06:30.036Z,0.77
2018-05-18T15:09:03.699Z,0.70
2018-05-18T15:11:36.863Z,0.80
2018-05-18T15:14:10.134Z,0.80
2018-05-18T15:16:43.745Z,0.80
2018-05-18T15:19:16.329Z,0.80
2018-05-18T15:21:50.089Z,0.90
2018-05-18T15:24:23.501Z,1.00
2018-05-18T15:26:56.866Z,0.80
2018-05-18T15:29:29.627Z,1.00
2018-05-18T15:32:02.839Z,2.10
2018-05-18T15:34:35.489Z,3.60
2018-05-18T15:37:09.024Z,2.60
2018-05-18T15:39:41.771Z,2.65
2018-05-18T15:44:47.618Z,2.03
2018-05-18T15:47:21.311Z,1.80
2018-05-18T15:49:54.282Z,1.53
2018-05-18T15:52:27.317Z,1.60
2018-05-18T15:55:00.023Z,1.50
2018-05-18T15:57:33.735Z,1.40
2018-05-18T16:00:06.732Z,1.20
2018-05-18T16:02:40.511Z,1.60
2018-05-18T16:05:14.163Z,1.30
2018-05-18T16:07:47.039Z,1.50
2018-05-18T16:10:20.730Z,1.00
2018-05-18T16:12:53.949Z,1.20
2018-05-18T16:15:26.636Z,1.20
2018-05-18T16:18:00.425Z,1.45
2018-05-18T16:20:33.641Z,1.40
2018-05-18T16:23:07.551Z,1.20
2018-05-18T16:25:40.162Z,1.10
2018-05-18T16:28:13.933Z,1.00
2018-05-18T16:30:47.696Z,1.40
2018-05-18T16:33:20.379Z,1.13
2018-05-18T16:35:53.039Z,1.50
2018-05-18T16:38:26.866Z,1.30
2018-05-18T16:40:59.515Z,1.30
2018-05-18T16:43:32.446Z,1.50
2018-05-18T16:46:05.638Z,1.10
2018-05-18T16:48:38.210Z,1.30
2018-05-18T16:51:11.507Z,1.33
2018-05-18T16:53:44.452Z,1.37
2018-05-18T16:56:17.623Z,1.47
2018-05-18T16:58:50.649Z,1.40
2018-05-18T17:01:23.051Z,1.30
2018-05-18T17:03:56.743Z,1.20
2018-05-18T17:06:30.272Z,1.20
2018-05-18T17:09:03.939Z,1.42
2018-05-18T17:11:37.513Z,1.60
2018-05-18T17:14:10.557Z,1.20
2018-05-18T17:16:44.145Z,1.93
2018-05-18T17:19:17.453Z,1.60
2018-05-18T17:21:50.230Z,1.57
2018-05-18T17:24:23.368Z,1.30
2018-05-18T17:26:56.646Z,1.30
2018-05-18T17:29:29.532Z,1.30
2018-05-18T17:32:02.672Z,1.20
2018-05-18T17:34:35.842Z,1.20
2018-05-18T17:37:09.657Z,1.20
2018-05-18T17:39:42.370Z,1.20
2018-05-18T17:42:15.395Z,1.00
2018-05-18T17:44:48.782Z,1.03
2018-05-18T17:47:22.068Z,1.00
2018-05-18T17:49:55.833Z,1.20
2018-05-18T17:52:28.824Z,1.35
2018-05-18T17:55:01.614Z,1.30
2018-05-18T17:57:35.006Z,1.12
2018-05-18T18:00:09.019Z,1.20
2018-05-18T18:02:42.189Z,1.00
2018-05-18T18:05:15.389Z,1.00
2018-05-18T18:07:48.628Z,1.00
2018-05-18T18:10:22.824Z,1.15
2018-05-18T18:12:56.080Z,1.33
2018-05-18T18:15:29.871Z,1.27
2018-05-18T18:18:03.667Z,1.37
2018-05-18T18:20:36.749Z,1.40
2018-05-18T18:24:13.589Z,1.30
2018-05-18T18:26:46.824Z,1.20
2018-05-18T18:29:19.873Z,1.20
2018-05-18T18:34:05.632Z,1.10
2018-05-18T18:36:38.414Z,1.10
2018-05-18T18:39:11.392Z,1.30
2018-05-18T18:41:44.880Z,1.10
2018-05-18T18:44:17.459Z,1.10
2018-05-18T18:46:50.099Z,0.90
2018-05-18T18:49:23.702Z,1.30
2018-05-18T18:51:56.909Z,1.20
2018-05-18T18:54:30.467Z,1.15
2018-05-18T18:57:03.393Z,1.00
2018-05-18T18:59:35.798Z,1.10
2018-05-18T19:02:08.850Z,1.00
2018-05-18T19:04:42.539Z,1.10
2018-05-18T19:07:16.076Z,0.80
2018-05-18T19:09:49.074Z,1.30
2018-05-18T19:12:22.088Z,1.00
2018-05-18T19:14:55.850Z,1.10
2018-05-18T19:17:29.073Z,1.10
2018-05-18T19:20:02.083Z,1.00
2018-05-18T19:22:35.788Z,1.10
2018-05-18T19:25:08.689Z,1.10
2018-05-18T19:27:41.554Z,1.08
2018-05-18T19:30:14.784Z,0.90
2018-05-18T19:32:47.483Z,0.70
2018-05-18T19:35:20.683Z,1.00
2018-05-18T19:37:53.556Z,1.10
2018-05-18T19:40:26.147Z,1.30
2018-05-18T19:42:59.111Z,1.10
2018-05-18T19:45:32.214Z,1.10
2018-05-18T19:48:05.373Z,1.00
2018-05-18T19:50:38.697Z,1.02
2018-05-18T19:53:12.076Z,1.20
2018-05-18T19:58:16.684Z,0.90
2018-05-18T20:00:49.850Z,1.10
2018-05-18T20:03:23.686Z,1.00
2018-05-18T20:05:56.691Z,0.83
2018-05-18T20:08:29.592Z,0.90
2018-05-18T20:11:03.377Z,0.90
2018-05-18T20:13:35.843Z,1.10
2018-05-18T20:18:41.414Z,0.90
2018-05-18T20:21:14.141Z,0.82
2018-05-18T20:23:47.740Z,1.00
2018-05-18T20:26:21.885Z,0.95
2018-05-18T20:28:55.334Z,1.17
2018-05-18T20:31:28.938Z,0.90
2018-05-18T20:36:02.965Z,0.90
2018-05-18T20:41:15.703Z,0.87
2018-05-18T20:43:48.617Z,0.90
2018-05-18T20:46:21.842Z,0.90
2018-05-18T20:48:55.881Z,0.93
2018-05-18T20:51:28.692Z,1.10
2018-05-18T20:54:02.885Z,1.00
2018-05-18T20:58:13.828Z,0.80
2018-05-18T21:00:47.648Z,0.80
2018-05-18T21:03:20.915Z,0.90
2018-05-18T21:05:54.718Z,0.80
2018-05-18T21:08:27.663Z,1.10
2018-05-18T21:11:00.995Z,0.90
2018-05-18T21:13:34.126Z,1.10
2018-05-18T21:16:07.962Z,0.90
2018-05-18T21:18:40.592Z,1.00
2018-05-18T21:21:13.952Z,0.97
2018-05-18T21:23:47.426Z,0.88
2018-05-18T21:26:20.911Z,0.90
2018-05-18T21:28:54.591Z,0.90
2018-05-18T21:31:27.585Z,1.00
2018-05-18T21:34:00.439Z,1.00
2018-05-18T21:36:33.989Z,0.90
2018-05-18T21:39:06.848Z,0.90
2018-05-18T21:41:39.828Z,0.82
2018-05-18T21:44:13.346Z,0.80
2018-05-18T21:49:18.824Z,0.70
2018-05-18T21:51:52.720Z,0.88
2018-05-18T21:54:25.648Z,0.80
2018-05-18T21:56:58.584Z,0.80
2018-05-18T21:59:31.649Z,1.00
2018-05-18T22:02:04.816Z,1.00
2018-05-18T22:04:37.639Z,0.87
2018-05-18T22:07:09.834Z,0.80
2018-05-18T22:09:43.651Z,0.90
2018-05-18T22:12:16.629Z,0.90
2018-05-18T22:14:49.958Z,0.70
2018-05-18T22:17:22.739Z,0.70
2018-05-18T22:19:55.930Z,0.80
2018-05-18T22:22:29.144Z,0.90
2018-05-18T22:25:01.362Z,1.20
2018-05-18T22:27:34.891Z,1.10
2018-05-18T22:30:08.129Z,1.10
2018-05-18T22:33:53.987Z,1.25
2018-05-18T22:38:58.937Z,1.20
2018-05-18T22:41:32.744Z,1.15
2018-05-18T22:44:05.943Z,1.03
2018-05-18T22:46:38.742Z,1.23
2018-05-18T22:49:11.617Z,1.00
2018-05-18T22:51:44.527Z,1.10
2018-05-18T22:54:17.880Z,1.10
2018-05-18T22:58:37.952Z,1.20
2018-05-18T23:01:39.458Z,1.00
2018-05-18T23:04:12.508Z,0.90
2018-05-18T23:06:45.798Z,1.10
2018-05-18T23:09:18.655Z,1.20
2018-05-18T23:11:51.617Z,1.20
2018-05-18T23:14:24.448Z,1.30
2018-05-18T23:16:57.443Z,0.83
2018-05-18T23:19:30.941Z,1.00
2018-05-18T23:22:04.919Z,1.40
2018-05-18T23:24:37.384Z,1.30
2018-05-18T23:27:10.154Z,1.20
2018-05-18T23:29:43.172Z,1.30
2018-05-18T23:32:16.930Z,1.30
2018-05-18T23:34:50.941Z,1.30
2018-05-18T23:37:23.932Z,1.33
2018-05-18T23:39:57.941Z,1.35
2018-05-18T23:42:31.140Z,1.40
2018-05-18T23:45:04.791Z,1.23
2018-05-18T23:47:38.955Z,1.70
2018-05-18T23:50:11.751Z,1.40
2018-05-18T23:52:45.172Z,1.60
2018-05-18T23:55:18.306Z,1.60
2018-05-18T23:57:51.924Z,1.70
